Time;durP1;ratioP1;P1;durP2;ratioP2;P2;SDS_P1;SDS_P2;PMS_P1;PMS_P2;Temp;Humidity;BMP_temperature;BMP_pressure;BME280_temperature;BME280_humidity;BME280_pressure;Samples;Min_cycle;Max_cycle;Signal;HPM_P1;HPM_P2
2024/01/28 00:01:42;;;;;;;15.80;5.70;;;6.00;99.90;;;;;;10060270;28;20044;-65
2024/01/28 00:06:33;;;;;;;11.05;6.00;;;6.00;99.90;;;;;;10045370;28;20038;-65
2024/01/28 00:11:24;;;;;;;10.23;6.55;;;5.90;99.90;;;;;;10060786;28;20037;-66
2024/01/28 00:16:18;;;;;;;13.02;5.50;;;6.00;99.90;;;;;;10060193;28;20034;-67
2024/01/28 00:21:08;;;;;;;10.35;5.82;;;5.90;99.90;;;;;;10060747;28;20056;-70
2024/01/28 00:26:01;;;;;;;10.30;6.63;;;5.80;99.90;;;;;;10058913;28;20480;-70
2024/01/28 00:30:52;;;;;;;13.35;7.00;;;5.70;99.90;;;;;;10043710;28;20033;-67
2024/01/28 00:35:43;;;;;;;11.57;7.13;;;5.70;99.90;;;;;;10064610;28;20030;-66
2024/01/28 00:40:33;;;;;;;13.02;6.05;;;5.80;99.90;;;;;;10064490;28;20053;-66
2024/01/28 00:45:24;;;;;;;14.55;7.35;;;5.70;99.90;;;;;;10068607;28;20509;-65
2024/01/28 00:50:15;;;;;;;16.38;9.02;;;5.70;99.90;;;;;;10074074;28;20207;-70
2024/01/28 00:55:06;;;;;;;13.02;7.80;;;5.70;99.90;;;;;;10081193;28;20032;-68
2024/01/28 00:59:57;;;;;;;15.02;6.93;;;5.70;99.90;;;;;;10077048;28;20021;-65
2024/01/28 01:04:47;;;;;;;14.10;7.25;;;5.60;99.90;;;;;;10070107;28;20419;-66
2024/01/28 01:09:38;;;;;;;13.05;6.53;;;5.60;99.90;;;;;;10058859;28;20017;-67
2024/01/28 01:14:29;;;;;;;12.43;6.88;;;5.70;99.90;;;;;;10056801;28;20041;-66
2024/01/28 01:19:20;;;;;;;16.55;7.68;;;5.60;99.90;;;;;;10058207;28;20017;-66
2024/01/28 01:24:11;;;;;;;13.57;6.75;;;5.60;99.90;;;;;;10058017;28;20049;-66
2024/01/28 01:29:02;;;;;;;10.85;6.18;;;5.70;99.90;;;;;;10058410;28;20083;-66
2024/01/28 01:33:52;;;;;;;10.95;6.35;;;5.70;99.90;;;;;;10057729;28;20041;-66
2024/01/28 01:38:43;;;;;;;11.25;5.95;;;5.70;99.90;;;;;;10056577;28;20116;-67
2024/01/28 01:43:34;;;;;;;8.43;6.13;;;5.60;99.90;;;;;;10057515;28;20028;-67
2024/01/28 01:48:26;;;;;;;11.30;6.45;;;5.40;99.90;;;;;;10050937;28;20181;-66
2024/01/28 01:53:18;;;;;;;11.73;5.78;;;5.40;99.90;;;;;;10054658;28;20265;-66
2024/01/28 01:58:09;;;;;;;11.85;6.38;;;5.30;99.90;;;;;;10056570;28;20158;-66
2024/01/28 02:03:03;;;;;;;11.57;6.45;;;5.30;99.90;;;;;;10055451;28;20558;-66
2024/01/28 02:07:53;;;;;;;8.63;6.57;;;5.30;99.90;;;;;;10057055;28;20092;-66
2024/01/28 02:12:45;;;;;;;11.57;6.63;;;5.30;99.90;;;;;;10056126;28;20029;-66
2024/01/28 02:17:36;;;;;;;9.70;7.28;;;5.30;99.90;;;;;;10056481;28;20057;-67
2024/01/28 02:22:26;;;;;;;12.75;6.75;;;5.20;99.90;;;;;;10055709;28;20056;-66
2024/01/28 02:27:17;;;;;;;12.95;7.50;;;5.20;99.90;;;;;;10055467;28;20447;-67
2024/01/28 02:32:13;;;;;;;14.07;6.78;;;5.20;99.90;;;;;;10055990;28;20067;-66
2024/01/28 02:37:03;;;;;;;;;;;5.20;99.90;;;;;;10051832;28;20026;-66
2024/01/28 02:41:54;;;;;;;14.43;7.28;;;5.10;99.90;;;;;;10056070;28;19909;-67
2024/01/28 02:46:45;;;;;;;14.52;7.18;;;5.10;99.90;;;;;;10056169;28;20029;-66
2024/01/28 02:51:36;;;;;;;8.48;5.50;;;5.10;99.90;;;;;;10087788;28;20037;-65
2024/01/28 02:56:26;;;;;;;8.90;5.95;;;5.00;99.90;;;;;;10055245;28;20017;-66
2024/01/28 03:01:17;;;;;;;8.15;5.82;;;5.00;99.90;;;;;;10055851;28;20044;-67
2024/01/28 03:06:07;;;;;;;9.55;5.32;;;5.00;99.90;;;;;;10055538;28;20099;-66
2024/01/28 03:10:58;;;;;;;6.13;4.35;;;4.90;99.90;;;;;;10055519;28;20153;-67
2024/01/28 03:15:52;;;;;;;5.68;4.20;;;4.90;99.90;;;;;;10053944;28;20045;-67
2024/01/28 03:20:42;;;;;;;9.88;5.07;;;4.90;99.90;;;;;;10055623;28;20036;-66
2024/01/28 03:25:33;;;;;;;8.95;3.92;;;4.70;99.90;;;;;;10054784;28;20046;-66
2024/01/28 03:30:24;;;;;;;9.70;5.00;;;4.80;99.90;;;;;;10054047;28;20045;-66
2024/01/28 03:35:14;;;;;;;5.22;3.53;;;4.70;99.90;;;;;;10055454;28;20022;-66
2024/01/28 03:40:05;;;;;;;9.70;4.00;;;4.70;99.90;;;;;;10057111;28;20511;-66
2024/01/28 03:44:56;;;;;;;12.02;5.18;;;4.60;99.90;;;;;;10061998;28;20032;-67
2024/01/28 03:49:47;;;;;;;6.57;4.50;;;4.70;99.90;;;;;;10062874;28;20048;-65
2024/01/28 03:54:37;;;;;;;7.72;4.22;;;4.60;99.90;;;;;;10061112;28;20064;-65
2024/01/28 03:59:28;;;;;;;6.60;4.38;;;4.60;99.90;;;;;;10061483;28;20029;-66
2024/01/28 04:04:18;;;;;;;10.27;5.57;;;4.60;99.90;;;;;;10061096;28;20033;-66
2024/01/28 04:09:10;;;;;;;11.57;6.20;;;4.50;99.90;;;;;;10060743;28;20491;-66
2024/01/28 04:14:00;;;;;;;11.70;5.35;;;4.50;99.90;;;;;;10060934;28;20049;-66
2024/01/28 04:18:52;;;;;;;12.57;5.60;;;4.40;99.90;;;;;;10060817;28;20036;-65
2024/01/28 04:23:43;;;;;;;8.35;5.47;;;4.40;99.90;;;;;;10060317;28;20136;-66
2024/01/28 04:28:34;;;;;;;11.77;5.68;;;4.40;99.90;;;;;;10048370;28;20038;-66
2024/01/28 04:33:25;;;;;;;12.20;5.35;;;4.40;99.90;;;;;;10058415;28;20088;-67
2024/01/28 04:38:15;;;;;;;11.52;6.03;;;4.30;99.90;;;;;;10059279;28;20363;-67
2024/01/28 04:43:06;;;;;;;5.50;4.50;;;4.30;99.90;;;;;;10059076;28;20029;-68
2024/01/28 04:47:57;;;;;;;11.07;5.03;;;4.40;99.90;;;;;;10059552;28;20029;-66
2024/01/28 04:52:47;;;;;;;7.97;4.68;;;4.40;99.90;;;;;;10058380;28;20117;-66
2024/01/28 04:57:38;;;;;;;7.68;4.70;;;4.40;99.90;;;;;;10059613;28;20021;-66
2024/01/28 05:02:28;;;;;;;6.05;4.97;;;4.40;99.90;;;;;;10058954;28;20097;-68
2024/01/28 05:07:20;;;;;;;7.53;5.05;;;4.40;99.90;;;;;;10058446;28;20041;-66
2024/01/28 05:12:10;;;;;;;10.30;5.13;;;4.40;99.90;;;;;;10058949;28;20036;-66
2024/01/28 05:17:01;;;;;;;11.60;5.00;;;4.40;99.90;;;;;;10058898;28;20040;-66
2024/01/28 05:21:52;;;;;;;10.73;4.88;;;4.40;99.90;;;;;;10058335;28;20530;-67
2024/01/28 05:26:42;;;;;;;9.75;4.32;;;4.30;99.90;;;;;;10058587;28;20025;-66
2024/01/28 05:31:33;;;;;;;8.88;4.88;;;4.30;99.90;;;;;;10058481;28;20056;-68
2024/01/28 05:36:24;;;;;;;7.50;5.28;;;4.30;99.90;;;;;;10058650;28;20029;-66
2024/01/28 05:41:14;;;;;;;8.95;5.57;;;4.30;99.90;;;;;;10058483;28;20022;-66
2024/01/28 05:46:05;;;;;;;7.85;4.75;;;4.20;99.90;;;;;;10057325;28;20037;-66
2024/01/28 05:50:56;;;;;;;11.45;6.20;;;4.20;99.90;;;;;;10056930;28;20037;-65
2024/01/28 05:55:46;;;;;;;12.20;6.40;;;4.20;99.90;;;;;;10054568;28;20025;-68
2024/01/28 06:00:37;;;;;;;15.63;6.60;;;4.20;99.90;;;;;;10060572;28;20589;-66
2024/01/28 06:05:28;;;;;;;9.20;6.53;;;4.10;99.90;;;;;;10059210;28;20501;-66
2024/01/28 06:10:18;;;;;;;12.93;6.97;;;4.20;99.90;;;;;;10057283;28;20029;-66
2024/01/28 06:15:10;;;;;;;14.27;7.20;;;4.10;99.90;;;;;;10054980;28;20087;-66
2024/01/28 06:20:00;;;;;;;10.07;6.22;;;4.10;99.90;;;;;;10056557;28;20025;-66
2024/01/28 06:24:51;;;;;;;10.20;6.20;;;4.10;99.90;;;;;;10056437;28;20176;-66
2024/01/28 06:29:44;;;;;;;8.85;5.50;;;4.00;99.90;;;;;;10057115;28;20121;-67
2024/01/28 06:34:35;;;;;;;10.75;6.40;;;4.00;99.90;;;;;;10055521;28;20491;-68
2024/01/28 06:39:25;;;;;;;15.75;6.38;;;3.90;99.90;;;;;;10054660;28;20112;-66
2024/01/28 06:44:16;;;;;;;13.27;5.63;;;3.90;99.90;;;;;;10056700;28;20033;-66
2024/01/28 06:49:07;;;;;;;12.50;5.10;;;3.90;99.90;;;;;;10055349;28;20018;-67
2024/01/28 06:53:57;;;;;;;15.90;7.75;;;3.90;99.90;;;;;;10054771;28;20507;-67
2024/01/28 06:58:48;;;;;;;13.50;6.88;;;4.00;99.90;;;;;;10054612;28;20116;-67
2024/01/28 07:03:39;;;;;;;14.50;6.05;;;4.00;99.90;;;;;;10056528;28;20379;-67
2024/01/28 07:08:29;;;;;;;13.38;5.63;;;4.00;99.90;;;;;;10055569;28;20030;-66
2024/01/28 07:13:20;;;;;;;11.90;7.07;;;4.00;99.90;;;;;;10045699;28;20407;-66
2024/01/28 07:18:11;;;;;;;11.70;6.05;;;4.00;99.90;;;;;;10059168;28;20599;-66
2024/01/28 07:23:01;;;;;;;12.82;5.82;;;4.10;99.90;;;;;;10067631;28;20052;-66
2024/01/28 07:27:52;;;;;;;13.05;8.18;;;4.00;99.90;;;;;;10060713;28;20036;-68
2024/01/28 07:32:42;;;;;;;13.30;6.63;;;4.00;99.90;;;;;;10062197;28;20626;-67
2024/01/28 07:37:33;;;;;;;15.07;6.82;;;4.00;99.90;;;;;;10061989;28;20024;-67
2024/01/28 07:42:24;;;;;;;12.60;6.85;;;3.90;99.90;;;;;;10061918;28;20025;-67
2024/01/28 07:47:14;;;;;;;15.80;6.00;;;4.00;99.90;;;;;;10062564;28;20407;-67
2024/01/28 07:52:05;;;;;;;12.75;6.63;;;4.00;99.90;;;;;;10061809;28;20503;-67
2024/01/28 07:56:57;;;;;;;20.20;8.88;;;4.00;99.90;;;;;;10060628;28;20030;-69
2024/01/28 08:01:47;;;;;;;11.55;6.57;;;3.90;99.90;;;;;;10061113;28;20044;-70
2024/01/28 08:06:38;;;;;;;15.45;6.90;;;3.90;99.90;;;;;;10061282;28;20030;-67
2024/01/28 08:11:29;;;;;;;13.50;7.00;;;4.00;99.90;;;;;;10061313;28;20139;-70
2024/01/28 08:16:19;;;;;;;14.85;6.97;;;4.00;99.90;;;;;;10061042;28;20022;-68
2024/01/28 08:21:10;;;;;;;13.38;6.70;;;4.00;99.90;;;;;;10060491;28;20073;-69
2024/01/28 08:26:00;;;;;;;13.90;7.00;;;4.00;99.90;;;;;;10060075;28;20034;-70
2024/01/28 08:30:51;;;;;;;15.18;6.78;;;4.10;99.90;;;;;;10060769;28;20037;-69
2024/01/28 08:35:43;;;;;;;14.25;7.32;;;4.30;99.90;;;;;;10059501;28;20033;-70
2024/01/28 08:40:34;;;;;;;13.13;7.20;;;4.40;99.90;;;;;;10059101;28;20025;-68
2024/01/28 08:45:24;;;;;;;12.48;6.47;;;4.40;99.90;;;;;;10059927;28;20044;-69
2024/01/28 08:50:15;;;;;;;13.40;6.57;;;4.40;99.90;;;;;;10060225;28;20132;-66
2024/01/28 08:55:06;;;;;;;11.38;6.38;;;4.40;99.90;;;;;;10059147;28;20053;-68
2024/01/28 08:59:57;;;;;;;10.07;5.97;;;4.30;99.90;;;;;;10059655;28;20079;-67
2024/01/28 09:04:48;;;;;;;10.32;5.70;;;4.40;99.90;;;;;;10059092;28;20080;-66
2024/01/28 09:09:38;;;;;;;9.15;4.93;;;4.40;99.90;;;;;;10059693;28;20029;-67
2024/01/28 09:14:29;;;;;;;11.90;6.15;;;4.50;99.90;;;;;;10058594;28;20041;-67
2024/01/28 09:19:20;;;;;;;7.68;4.90;;;4.40;99.90;;;;;;10058611;28;20038;-68
2024/01/28 09:24:10;;;;;;;7.93;5.20;;;4.40;99.90;;;;;;10056170;28;20125;-66
2024/01/28 09:29:01;;;;;;;9.70;6.20;;;4.40;99.90;;;;;;10057806;28;20108;-67
2024/01/28 09:33:52;;;;;;;8.80;5.07;;;4.50;99.90;;;;;;10057486;28;20045;-66
2024/01/28 09:38:42;;;;;;;9.93;5.05;;;4.60;99.90;;;;;;10057043;28;20030;-67
2024/01/28 09:43:38;;;;;;;7.35;5.15;;;4.60;99.90;;;;;;10056003;28;20029;-68
2024/01/28 09:48:29;;;;;;;11.90;5.97;;;4.60;99.90;;;;;;10052469;28;20112;-67
2024/01/28 09:53:20;;;;;;;8.15;5.32;;;4.70;99.90;;;;;;10058374;28;20136;-69
2024/01/28 09:58:11;;;;;;;7.70;5.18;;;4.70;99.90;;;;;;10059364;28;20108;-67
2024/01/28 10:03:01;;;;;;;12.05;5.63;;;4.70;99.90;;;;;;10065095;28;20032;-66
2024/01/28 10:08:03;;;;;;;9.63;5.25;;;4.60;99.90;;;;;;10058259;28;20037;-65
2024/01/28 10:12:54;;;;;;;10.45;6.05;;;4.60;99.90;;;;;;10062907;28;20033;-66
2024/01/28 10:17:48;;;;;;;8.60;5.72;;;4.70;99.90;;;;;;10073762;28;20064;-68
2024/01/28 10:22:39;;;;;;;7.82;5.45;;;4.70;99.90;;;;;;10064757;28;20049;-66
2024/01/28 10:27:30;;;;;;;8.00;5.03;;;4.70;99.90;;;;;;10063478;28;20038;-67
2024/01/28 10:32:21;;;;;;;10.82;6.68;;;4.70;99.90;;;;;;10065957;28;20044;-67
2024/01/28 10:37:14;;;;;;;10.02;5.82;;;4.80;99.90;;;;;;10066490;28;20044;-66
2024/01/28 10:42:09;;;;;;;11.05;5.80;;;4.80;99.90;;;;;;10074344;28;20098;-68
2024/01/28 10:47:00;;;;;;;10.52;6.57;;;4.90;99.90;;;;;;10071531;28;20521;-66
2024/01/28 10:51:52;;;;;;;12.55;6.85;;;4.90;99.90;;;;;;10065494;28;20037;-67
2024/01/28 10:56:44;;;;;;;10.15;6.05;;;4.90;99.90;;;;;;10069020;28;20030;-66
2024/01/28 11:01:35;;;;;;;11.02;5.68;;;5.00;99.90;;;;;;10067303;28;20025;-66
2024/01/28 11:06:27;;;;;;;11.32;6.70;;;5.10;99.90;;;;;;10067704;28;20029;-66
2024/01/28 11:11:17;;;;;;;10.43;5.90;;;5.00;99.90;;;;;;10069441;28;20033;-66
2024/01/28 11:16:11;;;;;;;9.75;5.13;;;5.10;99.90;;;;;;10066862;28;20451;-67
2024/01/28 11:21:13;;;;;;;12.32;6.40;;;5.10;99.90;;;;;;10074604;28;20056;-67
2024/01/28 11:26:04;;;;;;;9.15;6.03;;;5.20;99.90;;;;;;10067801;28;20410;-67
2024/01/28 11:30:57;;;;;;;10.93;6.63;;;5.30;99.90;;;;;;10078776;28;20033;-67
2024/01/28 11:35:48;;;;;;;16.63;7.88;;;5.30;99.90;;;;;;10077813;28;20117;-66
2024/01/28 11:40:39;;;;;;;14.00;6.60;;;5.40;99.90;;;;;;10061709;28;20017;-66
2024/01/28 11:45:30;;;;;;;19.13;8.15;;;5.40;99.90;;;;;;10052028;28;20828;-65
2024/01/28 11:50:20;;;;;;;11.05;7.53;;;5.40;99.90;;;;;;10057644;28;20340;-66
2024/01/28 11:55:13;;;;;;;11.35;7.35;;;5.40;99.90;;;;;;10065740;28;20029;-66
2024/01/28 12:00:08;;;;;;;14.35;8.27;;;5.50;99.90;;;;;;10057689;28;20021;-65
2024/01/28 12:04:58;;;;;;;16.13;7.80;;;5.50;99.90;;;;;;10059114;28;20091;-66
2024/01/28 12:09:49;;;;;;;14.25;7.97;;;5.50;99.90;;;;;;10060931;28;20099;-66
2024/01/28 12:14:41;;;;;;;15.15;8.57;;;5.50;99.90;;;;;;10052404;28;20787;-67
2024/01/28 12:19:32;;;;;;;13.55;7.80;;;5.60;99.90;;;;;;10051964;28;20108;-69
2024/01/28 12:24:22;;;;;;;16.65;9.73;;;5.70;99.90;;;;;;10057605;28;20132;-68
2024/01/28 12:29:13;;;;;;;14.50;7.97;;;5.70;99.90;;;;;;10060549;28;20346;-68
2024/01/28 12:34:13;;;;;;;12.82;8.05;;;5.80;99.90;;;;;;10059245;28;20446;-67
2024/01/28 12:39:03;;;;;;;16.23;8.45;;;5.80;99.90;;;;;;10057875;28;20021;-68
2024/01/28 12:43:54;;;;;;;15.75;7.43;;;5.90;99.90;;;;;;10061741;28;20051;-68
2024/01/28 12:48:45;;;;;;;16.13;7.95;;;5.90;99.90;;;;;;10060088;28;20103;-67
2024/01/28 12:53:35;;;;;;;12.65;7.70;;;6.00;99.90;;;;;;10058796;28;20045;-68
2024/01/28 12:58:26;;;;;;;13.50;7.93;;;6.00;99.90;;;;;;10059187;28;20442;-67
2024/01/28 13:03:17;;;;;;;12.65;7.78;;;6.00;99.90;;;;;;10073063;28;20021;-68
2024/01/28 13:08:08;;;;;;;12.52;7.53;;;6.10;99.90;;;;;;10054148;28;20026;-68
2024/01/28 13:12:59;;;;;;;12.32;6.13;;;6.10;99.90;;;;;;10045831;28;20041;-67
2024/01/28 13:17:50;;;;;;;10.57;6.90;;;6.10;99.90;;;;;;10080018;28;20026;-68
2024/01/28 13:22:44;;;;;;;12.82;6.03;;;6.10;99.90;;;;;;10078562;28;20064;-67
2024/01/28 13:27:34;;;;;;;12.60;6.68;;;6.10;99.90;;;;;;10080099;28;20039;-67
2024/01/28 13:32:25;;;;;;;13.45;6.72;;;6.10;99.90;;;;;;10080003;28;20039;-67
2024/01/28 13:37:16;;;;;;;14.77;6.70;;;6.10;99.90;;;;;;10063827;28;20045;-68
2024/01/28 13:42:07;;;;;;;12.85;6.68;;;6.10;99.90;;;;;;10076473;28;20041;-67
2024/01/28 13:46:59;;;;;;;14.40;7.18;;;6.10;99.90;;;;;;10079527;28;20025;-66
2024/01/28 13:51:50;;;;;;;10.90;6.35;;;6.20;99.90;;;;;;10073139;28;20028;-68
2024/01/28 13:56:40;;;;;;;9.57;6.40;;;6.20;99.90;;;;;;10076427;28;20434;-67
2024/01/28 14:01:31;;;;;;;10.70;6.38;;;6.20;99.90;;;;;;10074049;28;20717;-67
2024/01/28 14:06:22;;;;;;;12.32;6.35;;;6.10;99.90;;;;;;10075121;28;20037;-66
2024/01/28 14:11:13;;;;;;;11.15;5.97;;;6.20;99.90;;;;;;10060062;28;20041;-68
2024/01/28 14:16:04;;;;;;;12.18;6.80;;;6.20;99.90;;;;;;10071711;28;20595;-68
2024/01/28 14:20:55;;;;;;;15.10;7.20;;;6.20;99.90;;;;;;10044491;28;20482;-70
2024/01/28 14:25:48;;;;;;;10.05;5.78;;;6.20;99.90;;;;;;10046634;28;20057;-69
2024/01/28 14:30:39;;;;;;;11.68;6.70;;;6.20;99.90;;;;;;10041911;28;20026;-68
2024/01/28 14:35:30;;;;;;;14.43;8.13;;;6.20;99.90;;;;;;10040218;28;20037;-66
2024/01/28 14:40:20;;;;;;;12.05;7.10;;;6.20;99.90;;;;;;10031108;28;20040;-68
2024/01/28 14:45:11;;;;;;;15.93;8.43;;;6.20;99.90;;;;;;10049109;28;20041;-67
2024/01/28 14:50:02;;;;;;;17.20;10.02;;;6.30;99.90;;;;;;10040260;28;20017;-68
2024/01/28 14:54:52;;;;;;;15.15;9.35;;;6.30;99.90;;;;;;10037454;28;20041;-66
2024/01/28 14:59:43;;;;;;;17.00;10.93;;;6.30;99.90;;;;;;10049841;28;20021;-68
2024/01/28 15:04:34;;;;;;;21.58;11.98;;;6.30;99.90;;;;;;10044473;28;20034;-66
2024/01/28 15:09:24;;;;;;;18.98;10.85;;;6.30;99.90;;;;;;10044663;28;20100;-71
2024/01/28 15:14:15;;;;;;;20.85;10.10;;;6.30;99.90;;;;;;10037593;28;20038;-67
2024/01/28 15:19:06;;;;;;;21.67;11.50;;;6.20;99.90;;;;;;10032896;28;20075;-65
2024/01/28 15:23:57;;;;;;;20.73;10.82;;;6.20;99.90;;;;;;10046458;28;20049;-67
2024/01/28 15:28:47;;;;;;;23.17;11.40;;;6.20;99.90;;;;;;10052158;28;20029;-67
2024/01/28 15:33:38;;;;;;;21.70;10.75;;;6.20;99.90;;;;;;10046937;28;20119;-66
2024/01/28 15:38:30;;;;;;;20.25;11.00;;;6.20;99.90;;;;;;10060941;28;20041;-66
2024/01/28 15:43:21;;;;;;;18.92;10.68;;;6.20;99.90;;;;;;10061525;28;20099;-67
2024/01/28 15:48:12;;;;;;;20.92;11.55;;;6.10;99.90;;;;;;10060402;28;20096;-71
2024/01/28 15:53:02;;;;;;;23.92;12.02;;;6.20;99.90;;;;;;10055982;28;20120;-67
2024/01/28 15:57:54;;;;;;;19.30;11.02;;;6.20;99.90;;;;;;10051019;28;20495;-65
2024/01/28 16:02:44;;;;;;;17.48;9.65;;;6.20;99.90;;;;;;10060973;28;20414;-69
2024/01/28 16:07:36;;;;;;;22.45;13.55;;;6.20;99.90;;;;;;10056395;28;20029;-68
2024/01/28 16:12:27;;;;;;;17.80;8.93;;;6.10;99.90;;;;;;10057159;28;20037;-66
2024/01/28 16:17:23;;;;;;;23.17;11.52;;;6.10;99.90;;;;;;10054529;28;20399;-66
2024/01/28 16:22:13;;;;;;;18.50;10.30;;;6.00;99.90;;;;;;10058042;28;20068;-65
2024/01/28 16:27:04;;;;;;;19.70;10.07;;;6.00;99.90;;;;;;10056574;28;20116;-67
2024/01/28 16:31:55;;;;;;;21.33;9.85;;;6.00;99.90;;;;;;10058078;28;20102;-64
2024/01/28 16:36:45;;;;;;;19.73;10.25;;;6.00;99.90;;;;;;10056543;28;20052;-69
2024/01/28 16:41:36;;;;;;;16.63;9.57;;;5.90;99.90;;;;;;10057123;28;20124;-66
2024/01/28 16:46:27;;;;;;;17.38;9.90;;;5.80;99.90;;;;;;10054107;28;20037;-66
2024/01/28 16:51:17;;;;;;;22.13;11.40;;;5.70;99.90;;;;;;10058968;28;20573;-66
2024/01/28 16:56:10;;;;;;;20.85;10.30;;;5.70;99.90;;;;;;10051405;28;20033;-70
2024/01/28 17:01:01;;;;;;;16.60;9.77;;;5.60;99.90;;;;;;10054924;28;20037;-72
2024/01/28 17:05:51;;;;;;;23.48;11.73;;;5.60;99.90;;;;;;10067205;28;20021;-69
2024/01/28 17:10:45;;;;;;;21.92;10.73;;;5.50;99.90;;;;;;10069789;28;20040;-71
2024/01/28 17:15:36;;;;;;;22.52;11.13;;;5.40;99.90;;;;;;10058449;28;20478;-70
2024/01/28 17:20:27;;;;;;;22.85;11.27;;;5.40;99.90;;;;;;10046943;28;20034;-69
2024/01/28 17:25:17;;;;;;;21.92;11.00;;;5.40;99.90;;;;;;10038818;28;20601;-71
2024/01/28 17:30:08;;;;;;;24.67;12.23;;;5.20;99.90;;;;;;10051608;28;20037;-70
2024/01/28 17:34:59;;;;;;;25.08;12.50;;;5.20;99.90;;;;;;10057127;28;20041;-69
2024/01/28 17:39:50;;;;;;;25.95;13.43;;;5.10;99.90;;;;;;10052786;28;20358;-71
2024/01/28 17:44:41;;;;;;;24.58;12.93;;;5.00;99.90;;;;;;10057876;28;20552;-70
2024/01/28 17:49:31;;;;;;;22.73;11.98;;;5.00;99.90;;;;;;10059978;28;20045;-72
2024/01/28 17:54:22;;;;;;;29.63;10.82;;;4.90;99.90;;;;;;10056501;28;20041;-72
2024/01/28 17:59:13;;;;;;;20.35;10.63;;;4.80;99.90;;;;;;10051416;28;20025;-70
2024/01/28 18:04:03;;;;;;;18.45;9.20;;;4.70;99.90;;;;;;10052678;28;20606;-70
2024/01/28 18:08:54;;;;;;;17.33;9.20;;;4.70;99.90;;;;;;10055638;28;20026;-69
2024/01/28 18:13:46;;;;;;;19.02;10.07;;;4.70;99.90;;;;;;10059002;28;20065;-67
2024/01/28 18:18:36;;;;;;;19.08;10.35;;;4.60;99.90;;;;;;10049142;28;20063;-71
2024/01/28 18:23:27;;;;;;;21.55;11.02;;;4.60;99.90;;;;;;10056393;28;20064;-69
2024/01/28 18:28:18;;;;;;;21.85;11.63;;;4.50;99.90;;;;;;10056861;28;20029;-68
2024/01/28 18:33:09;;;;;;;21.50;11.77;;;4.50;99.90;;;;;;10052814;28;20459;-67
2024/01/28 18:38:00;;;;;;;20.50;11.88;;;4.50;99.90;;;;;;10056893;28;20495;-68
2024/01/28 18:42:51;;;;;;;26.98;14.65;;;4.50;99.90;;;;;;10060516;28;20139;-67
2024/01/28 18:47:41;;;;;;;28.63;12.88;;;4.50;99.90;;;;;;10046568;28;20039;-68
2024/01/28 18:52:32;;;;;;;32.42;14.57;;;4.50;99.90;;;;;;10044099;28;20045;-67
2024/01/28 18:57:23;;;;;;;27.25;14.77;;;4.50;99.90;;;;;;10069215;28;20037;-68
2024/01/28 19:02:15;;;;;;;29.85;14.75;;;4.50;99.90;;;;;;10064286;28;20029;-68
2024/01/28 19:07:06;;;;;;;33.70;16.40;;;4.60;99.90;;;;;;10065898;28;20025;-66
2024/01/28 19:11:57;;;;;;;28.85;14.15;;;4.50;99.90;;;;;;10081730;28;20037;-69
2024/01/28 19:16:47;;;;;;;21.60;13.40;;;4.60;99.90;;;;;;10079188;28;20491;-70
2024/01/28 19:21:38;;;;;;;22.67;11.63;;;4.60;99.90;;;;;;10083031;28;20049;-69
2024/01/28 19:26:29;;;;;;;23.30;11.23;;;4.60;99.90;;;;;;10078047;28;20282;-69
2024/01/28 19:31:21;;;;;;;21.10;11.48;;;4.60;99.90;;;;;;10078649;28;20422;-68
2024/01/28 19:36:12;;;;;;;22.83;12.75;;;4.60;99.90;;;;;;10077322;28;20407;-70
2024/01/28 19:41:03;;;;;;;18.90;10.68;;;4.60;99.90;;;;;;10060156;28;20091;-71
2024/01/28 19:45:56;;;;;;;18.90;10.80;;;4.60;99.90;;;;;;10056201;28;20034;-69
2024/01/28 19:50:49;;;;;;;18.27;9.75;;;4.60;99.90;;;;;;10063007;28;20033;-68
2024/01/28 19:55:40;;;;;;;19.83;11.30;;;4.60;99.90;;;;;;10078206;28;20078;-69
2024/01/28 20:00:31;;;;;;;19.83;11.27;;;4.50;99.90;;;;;;10057244;28;20026;-68
2024/01/28 20:05:22;;;;;;;23.58;11.52;;;4.40;99.90;;;;;;10047566;28;20114;-69
2024/01/28 20:10:13;;;;;;;18.77;10.90;;;4.40;99.90;;;;;;10038218;28;20021;-67
2024/01/28 20:15:05;;;;;;;16.92;9.55;;;4.40;99.90;;;;;;10047768;28;20041;-68
2024/01/28 20:19:57;;;;;;;18.75;10.02;;;4.30;99.90;;;;;;10046397;28;20032;-68
2024/01/28 20:24:48;;;;;;;15.05;8.65;;;4.30;99.90;;;;;;10050099;28;20407;-67
2024/01/28 20:29:38;;;;;;;17.00;9.27;;;4.30;99.90;;;;;;10057201;28;20120;-68
2024/01/28 20:34:29;;;;;;;40.47;20.48;;;4.20;99.90;;;;;;10056250;28;20063;-67
2024/01/28 20:39:21;;;;;;;44.55;21.38;;;4.20;99.90;;;;;;10061481;28;20102;-67
2024/01/28 20:44:12;;;;;;;31.17;15.00;;;4.20;99.90;;;;;;10055852;28;20117;-65
2024/01/28 20:49:03;;;;;;;23.55;12.10;;;4.20;99.90;;;;;;10051767;28;20563;-68
2024/01/28 20:53:54;;;;;;;26.92;12.40;;;4.20;99.90;;;;;;10056155;28;20059;-64
2024/01/28 20:58:44;;;;;;;23.48;10.60;;;4.10;99.90;;;;;;10050254;28;20450;-66
2024/01/28 21:03:35;;;;;;;20.88;11.20;;;4.10;99.90;;;;;;10029653;28;20030;-67
2024/01/28 21:08:26;;;;;;;19.90;9.77;;;4.10;99.90;;;;;;10058400;28;20060;-66
2024/01/28 21:13:16;;;;;;;22.92;11.65;;;4.00;99.90;;;;;;10054099;28;20063;-67
2024/01/28 21:18:07;;;;;;;22.95;11.85;;;4.00;99.90;;;;;;10049987;28;20056;-65
2024/01/28 21:22:58;;;;;;;22.83;9.93;;;4.00;99.90;;;;;;10056437;28;20426;-67
2024/01/28 21:27:50;;;;;;;17.90;9.13;;;4.00;99.90;;;;;;10058201;28;20032;-68
2024/01/28 21:32:41;;;;;;;25.52;12.85;;;4.00;99.90;;;;;;10057883;28;20124;-68
2024/01/28 21:37:31;;;;;;;22.20;12.88;;;4.00;99.90;;;;;;10057824;28;20108;-67
2024/01/28 21:42:22;;;;;;;19.90;12.35;;;3.90;99.90;;;;;;10056635;28;20029;-67
2024/01/28 21:47:14;;;;;;;22.95;12.25;;;3.90;99.90;;;;;;10057257;28;20399;-68
2024/01/28 21:52:05;;;;;;;22.77;12.90;;;3.90;99.90;;;;;;10057902;28;20123;-66
2024/01/28 21:56:56;;;;;;;25.10;13.00;;;3.90;99.90;;;;;;10055790;28;20052;-67
2024/01/28 22:01:46;;;;;;;21.25;10.75;;;3.90;99.90;;;;;;10056628;28;20523;-67
2024/01/28 22:06:37;;;;;;;18.20;10.45;;;3.90;99.90;;;;;;10057306;28;20029;-67
2024/01/28 22:11:28;;;;;;;19.92;11.35;;;3.90;99.90;;;;;;10055218;28;20045;-67
2024/01/28 22:16:18;;;;;;;17.38;10.07;;;3.80;99.90;;;;;;10051937;28;20038;-66
2024/01/28 22:21:09;;;;;;;18.52;9.60;;;3.90;99.90;;;;;;10056230;28;20645;-66
2024/01/28 22:26:00;;;;;;;14.90;8.63;;;3.80;99.90;;;;;;10035336;28;20073;-65
2024/01/28 22:30:51;;;;;;;16.67;9.98;;;3.90;99.90;;;;;;10047679;28;20513;-66
2024/01/28 22:35:41;;;;;;;18.88;10.10;;;3.80;99.90;;;;;;10039009;28;20034;-66
2024/01/28 22:40:32;;;;;;;18.80;10.07;;;3.80;99.90;;;;;;10054671;28;20033;-65
2024/01/28 22:45:23;;;;;;;16.83;9.50;;;3.80;99.90;;;;;;10046053;28;20034;-66
2024/01/28 22:50:15;;;;;;;15.68;9.35;;;3.80;99.90;;;;;;10050284;28;20045;-65
2024/01/28 22:55:06;;;;;;;16.00;8.00;;;3.80;99.90;;;;;;10056146;28;20041;-67
2024/01/28 22:59:57;;;;;;;19.45;8.93;;;3.80;99.90;;;;;;10054000;28;20104;-66
2024/01/28 23:04:48;;;;;;;13.10;8.18;;;3.90;99.90;;;;;;10054052;28;20505;-66
2024/01/28 23:09:38;;;;;;;14.02;7.82;;;3.80;99.90;;;;;;10056422;28;20495;-65
2024/01/28 23:14:30;;;;;;;17.10;8.38;;;3.90;99.90;;;;;;10055351;28;20484;-64
2024/01/28 23:19:21;;;;;;;17.27;8.73;;;3.90;99.90;;;;;;10055254;28;20508;-64
2024/01/28 23:24:11;;;;;;;13.57;8.95;;;3.90;99.90;;;;;;10054828;28;20049;-64
2024/01/28 23:29:02;;;;;;;11.38;8.13;;;3.90;99.90;;;;;;10056759;28;20025;-65
2024/01/28 23:34:01;;;;;;;14.35;7.55;;;3.80;99.90;;;;;;10054864;28;20041;-67
2024/01/28 23:38:52;;;;;;;12.43;6.75;;;3.80;99.90;;;;;;10054962;28;20022;-65
2024/01/28 23:43:42;;;;;;;12.27;6.85;;;3.80;99.90;;;;;;10053677;28;20124;-67
2024/01/28 23:48:34;;;;;;;10.20;7.07;;;3.80;99.90;;;;;;10054654;28;20028;-65
2024/01/28 23:53:24;;;;;;;11.05;6.47;;;3.80;99.90;;;;;;10054863;28;20034;-65
2024/01/28 23:58:15;;;;;;;11.45;5.88;;;3.70;99.90;;;;;;10056094;28;20071;-66
